createdAt,value
2022-12-07T08:31:28.759Z,16.20
2022-12-07T08:33:55.955Z,17.65
2022-12-07T08:36:23.815Z,18.08
2022-12-07T08:39:29.241Z,19.60
2022-12-07T08:41:38.002Z,19.20
2022-12-07T08:44:05.172Z,17.55
2022-12-07T08:46:47.157Z,19.08
2022-12-07T08:49:28.025Z,18.17
2022-12-07T08:51:56.223Z,19.23
2022-12-07T08:54:23.197Z,19.17
2022-12-07T08:56:57.115Z,19.98
2022-12-07T08:59:26.402Z,20.17
2022-12-07T09:01:53.540Z,20.13
2022-12-07T09:04:21.509Z,17.70
2022-12-07T09:06:48.948Z,16.20
2022-12-07T09:09:16.268Z,18.85
2022-12-07T09:11:43.506Z,18.45
2022-12-07T09:14:10.211Z,17.40
2022-12-07T09:16:37.030Z,18.15
2022-12-07T09:19:03.771Z,18.50
2022-12-07T09:21:30.821Z,20.58
2022-12-07T09:23:57.641Z,17.77
2022-12-07T09:26:24.372Z,19.08
2022-12-07T09:28:51.019Z,19.02
2022-12-07T09:31:26.310Z,18.55
2022-12-07T09:34:01.404Z,20.20
2022-12-07T09:36:29.204Z,19.95
2022-12-07T09:38:56.558Z,19.90
2022-12-07T09:41:25.563Z,17.38
2022-12-07T09:43:54.265Z,15.88
2022-12-07T09:46:21.776Z,19.33
2022-12-07T09:48:50.804Z,18.52
2022-12-07T09:51:24.033Z,17.65
2022-12-07T09:53:53.813Z,14.02
2022-12-07T09:56:21.682Z,14.63
2022-12-07T09:58:49.310Z,13.52
2022-12-07T10:01:21.809Z,15.20
2022-12-07T10:03:55.183Z,12.90
2022-12-07T10:06:22.557Z,12.25
2022-12-07T10:08:49.400Z,10.40
2022-12-07T10:11:17.086Z,9.50
2022-12-07T10:13:50.123Z,9.90
2022-12-07T10:16:26.560Z,10.00
2022-12-07T10:18:53.821Z,9.10
2022-12-07T10:21:24.984Z,9.10
2022-12-07T10:24:20.331Z,10.32
2022-12-07T10:26:52.945Z,8.73
2022-12-07T10:29:39.204Z,8.32
2022-12-07T10:32:14.936Z,8.38
2022-12-07T10:34:46.212Z,8.65
2022-12-07T10:37:18.400Z,7.60
2022-12-07T10:39:52.233Z,7.60
2022-12-07T10:42:30.497Z,7.00
2022-12-07T10:45:17.702Z,6.93
2022-12-07T10:47:44.406Z,6.60
2022-12-07T10:50:38.036Z,5.60
2022-12-07T10:53:19.876Z,4.72
2022-12-07T10:56:19.531Z,5.57
2022-12-07T10:59:17.200Z,4.53
2022-12-07T11:01:52.814Z,5.18
2022-12-07T11:04:38.035Z,4.50
2022-12-07T11:07:29.331Z,4.90
2022-12-07T11:10:10.647Z,5.70
2022-12-07T11:12:59.516Z,5.80
2022-12-07T11:15:45.984Z,5.80
2022-12-07T11:18:36.366Z,5.20
2022-12-07T11:21:21.684Z,6.10
2022-12-07T11:23:58.598Z,5.40
2022-12-07T11:26:47.295Z,4.90
2022-12-07T11:29:25.257Z,4.80
2022-12-07T11:31:54.689Z,4.70
2022-12-07T11:35:03.217Z,5.32
2022-12-07T11:37:36.440Z,4.82
2022-12-07T11:40:25.590Z,5.57
2022-12-07T11:43:05.108Z,5.32
2022-12-07T11:45:43.590Z,4.65
2022-12-07T11:48:42.662Z,4.90
2022-12-07T11:51:13.067Z,4.97
2022-12-07T11:53:48.171Z,4.65
2022-12-07T11:56:20.266Z,4.47
2022-12-07T11:59:12.332Z,4.88
2022-12-07T12:01:43.311Z,3.42
2022-12-07T12:04:19.015Z,3.83
2022-12-07T12:06:46.273Z,3.30
2022-12-07T12:15:39.793Z,2.67
2022-12-07T12:18:19.997Z,2.97
2022-12-07T12:21:01.703Z,2.80
2022-12-07T12:24:06.093Z,2.72
2022-12-07T12:26:36.200Z,3.08
2022-12-07T12:29:53.499Z,3.08
2022-12-07T12:32:41.403Z,2.47
2022-12-07T12:35:24.192Z,2.78
2022-12-07T12:37:54.021Z,2.08
2022-12-07T12:40:31.883Z,1.98
2022-12-07T12:42:59.158Z,2.05
2022-12-07T12:45:30.695Z,2.15
2022-12-07T12:48:29.975Z,2.08
2022-12-07T12:51:45.007Z,2.10
2022-12-07T12:54:24.582Z,2.85
2022-12-07T12:57:00.204Z,2.20
2022-12-07T12:59:36.200Z,1.98
2022-12-07T13:02:21.890Z,2.58
2022-12-07T13:05:19.281Z,3.00
2022-12-07T13:07:46.270Z,2.33
2022-12-07T13:10:24.291Z,2.15
2022-12-07T13:12:57.476Z,2.00
2022-12-07T13:15:39.216Z,2.13
2022-12-07T13:18:31.542Z,2.33
2022-12-07T13:21:08.408Z,2.22
2022-12-07T13:23:44.073Z,2.17
2022-12-07T13:26:21.252Z,2.25
2022-12-07T13:29:12.813Z,2.33
2022-12-07T13:31:41.243Z,2.55
2022-12-07T13:34:34.457Z,2.78
2022-12-07T13:37:05.712Z,2.65
2022-12-07T13:39:37.265Z,2.90
2022-12-07T13:42:19.191Z,3.22
2022-12-07T13:44:45.912Z,3.63
2022-12-07T13:47:21.744Z,3.03
2022-12-07T13:49:57.008Z,3.25
2022-12-07T13:52:30.198Z,2.90
2022-12-07T13:55:12.720Z,3.33
2022-12-07T13:57:42.244Z,2.55
2022-12-07T14:00:22.237Z,3.30
2022-12-07T14:03:01.306Z,3.65
2022-12-07T14:05:30.864Z,3.53
2022-12-07T14:08:23.816Z,4.13
2022-12-07T14:10:50.632Z,3.17
2022-12-07T14:13:23.256Z,2.53
2022-12-07T14:15:53.701Z,3.55
2022-12-07T14:18:49.927Z,3.00
2022-12-07T14:21:20.132Z,2.90
2022-12-07T14:24:10.992Z,3.08
2022-12-07T14:26:40.442Z,2.50
2022-12-07T14:29:39.775Z,3.55
2022-12-07T14:32:35.669Z,3.33
2022-12-07T14:35:12.615Z,4.10
2022-12-07T14:40:08.864Z,2.13
2022-12-07T14:42:36.281Z,1.88
2022-12-07T14:45:04.587Z,1.85
2022-12-07T14:50:20.797Z,1.90
2022-12-07T14:55:42.210Z,2.03
2022-12-07T14:58:16.901Z,2.00
2022-12-07T15:00:44.395Z,2.15
2022-12-07T15:03:11.798Z,2.60
2022-12-07T15:05:38.866Z,2.28
2022-12-07T15:08:06.198Z,2.70
2022-12-07T15:10:34.770Z,2.40
2022-12-07T15:13:22.439Z,2.13
2022-12-07T15:15:51.650Z,2.63
2022-12-07T15:18:19.866Z,2.70
2022-12-07T15:20:47.397Z,2.33
2022-12-07T15:23:14.942Z,4.57
2022-12-07T15:25:43.114Z,9.50
2022-12-07T15:28:09.816Z,8.93
2022-12-07T15:30:39.864Z,5.00
2022-12-07T15:33:06.754Z,4.03
2022-12-07T15:35:33.665Z,2.70
2022-12-07T15:38:00.555Z,2.17
2022-12-07T15:40:27.387Z,1.95
2022-12-07T15:42:55.448Z,1.77
2022-12-07T15:45:24.196Z,1.40
2022-12-07T15:50:25.132Z,1.98
2022-12-07T15:52:51.853Z,1.65
2022-12-07T15:55:18.588Z,2.22
2022-12-07T15:57:45.283Z,1.88
2022-12-07T16:00:13.495Z,1.50
2022-12-07T16:02:40.490Z,1.73
2022-12-07T16:05:07.572Z,1.83
2022-12-07T16:07:35.878Z,1.75
2022-12-07T16:10:02.756Z,2.20
2022-12-07T16:12:29.452Z,5.82
2022-12-07T16:14:56.086Z,2.50
2022-12-07T16:17:22.819Z,1.20
2022-12-07T16:19:49.485Z,0.88
2022-12-07T16:22:16.085Z,1.17
2022-12-07T16:24:42.927Z,1.00
2022-12-07T16:27:09.655Z,1.35
2022-12-07T16:29:36.396Z,1.58
2022-12-07T16:32:03.088Z,0.80
2022-12-07T16:34:29.816Z,1.10
2022-12-07T16:37:05.255Z,1.00
2022-12-07T16:39:33.140Z,1.20
2022-12-07T16:41:59.820Z,1.00
2022-12-07T16:44:26.538Z,1.15
2022-12-07T16:46:53.299Z,1.20
2022-12-07T16:49:20.495Z,1.70
2022-12-07T16:52:08.709Z,3.25
2022-12-07T16:54:37.508Z,1.90
2022-12-07T16:57:04.145Z,1.83
2022-12-07T16:59:30.905Z,5.40
2022-12-07T17:01:57.580Z,3.65
2022-12-07T17:04:24.312Z,4.20
2022-12-07T17:06:51.076Z,3.55
2022-12-07T17:09:21.108Z,2.88
2022-12-07T17:11:53.464Z,2.20
2022-12-07T17:14:39.024Z,1.60
2022-12-07T17:17:05.676Z,1.77
2022-12-07T17:19:32.367Z,2.28
2022-12-07T17:21:59.034Z,1.95
2022-12-07T17:24:25.766Z,3.78
2022-12-07T17:26:54.662Z,2.95
2022-12-07T17:29:21.404Z,3.90
2022-12-07T17:31:52.112Z,2.90
2022-12-07T17:34:19.821Z,3.75
2022-12-07T17:36:47.735Z,3.75
2022-12-07T17:39:20.434Z,2.75
2022-12-07T17:42:07.906Z,2.72
2022-12-07T17:44:34.659Z,3.53
2022-12-07T17:47:03.843Z,3.58
2022-12-07T17:49:30.859Z,4.90
2022-12-07T17:52:16.120Z,5.00
2022-12-07T17:54:44.127Z,4.50
2022-12-07T17:57:13.791Z,6.72
2022-12-07T17:59:40.483Z,5.40
2022-12-07T18:02:10.318Z,6.88
2022-12-07T18:04:37.041Z,5.95
2022-12-07T18:07:06.586Z,6.00
2022-12-07T18:09:36.444Z,8.68
2022-12-07T18:12:03.505Z,7.20
2022-12-07T18:14:31.518Z,7.47
2022-12-07T18:16:58.707Z,8.05
2022-12-07T18:19:25.475Z,8.35
2022-12-07T18:21:52.135Z,8.02
2022-12-07T18:24:19.823Z,8.65
2022-12-07T18:26:47.929Z,8.65
2022-12-07T18:29:17.465Z,8.63
2022-12-07T18:31:46.788Z,8.95
2022-12-07T18:34:16.387Z,9.00
2022-12-07T18:36:46.189Z,8.55
2022-12-07T18:39:15.219Z,8.55
2022-12-07T18:41:42.753Z,9.32
2022-12-07T18:44:10.299Z,9.63
2022-12-07T18:46:37.208Z,9.40
2022-12-07T18:49:04.134Z,8.70
2022-12-07T18:51:32.732Z,8.73
2022-12-07T18:54:01.436Z,7.40
2022-12-07T18:56:28.843Z,7.28
2022-12-07T18:59:19.581Z,7.95
2022-12-07T19:01:50.684Z,7.53
2022-12-07T19:04:18.128Z,6.68
2022-12-07T19:06:46.462Z,7.13
2022-12-07T19:09:13.672Z,6.47
2022-12-07T19:11:50.118Z,5.80
2022-12-07T19:14:22.478Z,5.38
2022-12-07T19:16:51.149Z,5.45
2022-12-07T19:19:20.094Z,6.07
